createdAt,value
2019-03-11T00:00:03.805Z,4.90
2019-03-11T00:02:34.282Z,4.55
2019-03-11T00:05:04.802Z,4.15
2019-03-11T00:07:35.312Z,3.58
2019-03-11T00:10:06.319Z,3.22
2019-03-11T00:12:36.886Z,3.20
2019-03-11T00:15:07.917Z,1.90
2019-03-11T00:17:38.426Z,2.70
2019-03-11T00:20:09.150Z,2.12
2019-03-11T00:22:39.701Z,2.40
2019-03-11T00:25:10.591Z,2.85
2019-03-11T00:27:41.054Z,3.00
2019-03-11T00:30:12.127Z,2.75
2019-03-11T00:32:42.678Z,2.10
2019-03-11T00:35:13.284Z,2.40
2019-03-11T00:37:43.770Z,2.50
2019-03-11T00:40:14.550Z,2.40
2019-03-11T00:42:45.077Z,2.65
2019-03-11T00:45:15.719Z,2.90
2019-03-11T00:47:46.283Z,2.50
2019-03-11T00:50:16.786Z,2.45
2019-03-11T00:52:47.340Z,1.95
2019-03-11T00:55:17.938Z,2.10
2019-03-11T00:57:48.425Z,1.77
2019-03-11T01:00:29.494Z,1.80
2019-03-11T01:03:00.008Z,1.70
2019-03-11T01:05:30.515Z,1.90
2019-03-11T01:08:01.128Z,1.80
2019-03-11T01:10:31.618Z,1.65
2019-03-11T01:13:02.132Z,1.90
2019-03-11T01:15:32.623Z,1.90
2019-03-11T01:18:03.129Z,1.50
2019-03-11T01:20:33.634Z,1.62
2019-03-11T01:23:04.134Z,1.40
2019-03-11T01:25:34.691Z,1.62
2019-03-11T01:28:05.234Z,2.02
2019-03-11T01:30:35.755Z,1.70
2019-03-11T01:33:06.245Z,2.15
2019-03-11T01:35:36.757Z,2.00
2019-03-11T01:38:07.260Z,2.27
2019-03-11T01:40:37.757Z,2.22
2019-03-11T01:43:08.225Z,2.00
2019-03-11T01:45:38.833Z,1.90
2019-03-11T01:48:09.339Z,2.10
2019-03-11T01:50:39.822Z,1.90
2019-03-11T01:53:10.438Z,1.92
2019-03-11T01:55:40.921Z,1.75
2019-03-11T01:58:11.471Z,1.90
2019-03-11T02:00:42.324Z,1.90
2019-03-11T02:03:12.907Z,2.30
2019-03-11T02:05:43.458Z,2.20
2019-03-11T02:08:13.941Z,2.40
2019-03-11T02:10:44.426Z,2.10
2019-03-11T02:13:14.937Z,2.40
2019-03-11T02:15:45.458Z,1.90
2019-03-11T02:18:15.973Z,2.08
2019-03-11T02:20:46.440Z,2.33
2019-03-11T02:23:16.937Z,2.15
2019-03-11T02:25:47.436Z,2.45
2019-03-11T02:28:18.776Z,1.95
2019-03-11T02:30:49.266Z,2.90
2019-03-11T02:33:19.776Z,2.45
2019-03-11T02:35:50.253Z,2.20
2019-03-11T02:38:20.762Z,2.22
2019-03-11T02:40:51.459Z,2.50
2019-03-11T02:43:21.923Z,2.40
2019-03-11T02:45:52.431Z,2.60
2019-03-11T02:48:22.908Z,2.50
2019-03-11T02:50:53.389Z,2.40
2019-03-11T02:53:23.897Z,2.77
2019-03-11T02:55:54.376Z,3.10
2019-03-11T02:58:24.897Z,2.10
2019-03-11T03:01:24.919Z,2.70
2019-03-11T03:04:02.340Z,2.40
2019-03-11T03:06:32.833Z,2.77
2019-03-11T03:09:03.296Z,2.20
2019-03-11T03:11:33.787Z,2.50
2019-03-11T03:14:04.307Z,2.30
2019-03-11T03:16:34.896Z,2.17
2019-03-11T03:19:05.365Z,2.70
2019-03-11T03:21:35.852Z,2.52
2019-03-11T03:24:06.351Z,2.42
2019-03-11T03:26:36.849Z,2.20
2019-03-11T03:29:07.338Z,2.10
2019-03-11T03:31:37.851Z,2.40
2019-03-11T03:34:08.297Z,2.30
2019-03-11T03:36:38.845Z,2.00
2019-03-11T03:39:09.716Z,1.90
2019-03-11T03:41:40.398Z,2.10
2019-03-11T03:44:10.934Z,1.67
2019-03-11T03:46:41.442Z,1.52
2019-03-11T03:49:11.944Z,1.30
2019-03-11T03:51:42.442Z,1.70
2019-03-11T03:54:12.922Z,2.12
2019-03-11T03:56:43.386Z,1.75
2019-03-11T03:59:13.882Z,1.62
2019-03-11T04:01:44.349Z,1.90
2019-03-11T04:04:14.845Z,1.85
2019-03-11T04:06:45.329Z,2.00
2019-03-11T04:09:15.795Z,2.27
2019-03-11T04:11:46.278Z,3.20
2019-03-11T04:14:16.794Z,2.00
2019-03-11T04:16:47.254Z,2.10
2019-03-11T04:19:17.707Z,2.33
2019-03-11T04:21:48.359Z,2.20
2019-03-11T04:24:18.832Z,2.52
2019-03-11T04:26:55.064Z,2.80
2019-03-11T04:29:25.554Z,2.52
2019-03-11T04:31:56.066Z,2.12
2019-03-11T04:34:26.445Z,2.75
2019-03-11T04:36:56.935Z,2.52
2019-03-11T04:39:27.457Z,2.87
2019-03-11T04:41:57.968Z,2.80
2019-03-11T04:44:28.462Z,2.80
2019-03-11T04:46:58.961Z,3.70
2019-03-11T04:49:29.494Z,3.13
2019-03-11T04:52:00.026Z,3.20
2019-03-11T04:54:30.603Z,2.50
2019-03-11T04:57:01.178Z,2.40
2019-03-11T04:59:31.672Z,1.80
2019-03-11T05:02:02.147Z,1.90
2019-03-11T05:04:32.639Z,2.10
2019-03-11T05:07:03.002Z,1.70
2019-03-11T05:09:33.464Z,1.95
2019-03-11T05:12:04.002Z,2.30
2019-03-11T05:14:34.468Z,2.00
2019-03-11T05:17:04.991Z,1.90
2019-03-11T05:19:35.978Z,2.20
2019-03-11T05:22:06.416Z,2.10
2019-03-11T05:24:36.889Z,1.95
2019-03-11T05:27:07.396Z,1.80
2019-03-11T05:29:37.907Z,2.10
2019-03-11T05:32:08.405Z,2.00
2019-03-11T05:34:38.913Z,2.40
2019-03-11T05:37:09.506Z,2.60
2019-03-11T05:39:39.953Z,2.27
2019-03-11T05:42:10.508Z,2.72
2019-03-11T05:44:40.976Z,3.13
2019-03-11T05:47:11.482Z,2.60
2019-03-11T05:49:41.972Z,3.72
2019-03-11T05:52:12.481Z,3.42
2019-03-11T05:54:42.960Z,3.30
2019-03-11T05:57:13.491Z,3.90
2019-03-11T05:59:43.956Z,4.37
2019-03-11T06:02:14.444Z,3.70
2019-03-11T06:04:44.990Z,4.62
2019-03-11T06:07:15.482Z,4.70
2019-03-11T06:09:45.957Z,4.12
2019-03-11T06:12:16.542Z,4.55
2019-03-11T06:14:47.095Z,3.83
2019-03-11T06:17:17.671Z,5.30
2019-03-11T06:19:49.815Z,4.67
2019-03-11T06:22:23.717Z,4.92
2019-03-11T06:25:44.784Z,4.58
2019-03-11T06:28:15.243Z,4.00
2019-03-11T06:30:45.771Z,4.60
2019-03-11T06:33:16.261Z,4.92
2019-03-11T06:35:46.737Z,4.40
2019-03-11T06:38:17.242Z,5.08
2019-03-11T06:40:47.731Z,4.85
2019-03-11T06:43:18.199Z,3.90
2019-03-11T06:45:48.725Z,4.20
2019-03-11T06:48:19.204Z,4.20
2019-03-11T06:50:49.732Z,4.25
2019-03-11T06:53:20.218Z,4.30
2019-03-11T06:55:50.745Z,5.22
2019-03-11T06:58:21.200Z,3.47
2019-03-11T07:00:51.730Z,3.52
2019-03-11T07:03:22.199Z,2.80
2019-03-11T07:05:52.714Z,2.65
2019-03-11T07:08:23.216Z,2.87
2019-03-11T07:10:53.713Z,2.55
2019-03-11T07:13:24.218Z,2.15
2019-03-11T07:15:54.755Z,1.60
2019-03-11T07:18:25.259Z,1.80
2019-03-11T07:20:55.713Z,1.95
2019-03-11T07:23:26.208Z,2.27
2019-03-11T07:25:56.697Z,2.30
2019-03-11T07:28:27.150Z,2.37
2019-03-11T07:30:57.693Z,2.35
2019-03-11T07:33:28.206Z,1.62
2019-03-11T07:35:58.747Z,1.80
2019-03-11T07:38:29.372Z,1.98
2019-03-11T07:40:59.864Z,2.40
2019-03-11T07:43:30.394Z,1.75
2019-03-11T07:46:01.014Z,2.37
2019-03-11T07:48:31.736Z,1.90
2019-03-11T07:51:02.285Z,2.00
2019-03-11T07:53:32.784Z,2.72
2019-03-11T07:56:03.287Z,2.30
2019-03-11T07:58:33.759Z,2.10
2019-03-11T08:01:04.293Z,1.80
2019-03-11T08:03:34.760Z,2.10
2019-03-11T08:06:05.221Z,2.60
2019-03-11T08:08:35.860Z,2.80
2019-03-11T08:11:06.340Z,2.43
2019-03-11T08:13:36.859Z,2.67
2019-03-11T08:16:07.350Z,2.10
2019-03-11T08:18:37.865Z,2.10
2019-03-11T08:21:08.322Z,2.52
2019-03-11T08:23:38.836Z,2.30
2019-03-11T08:26:09.334Z,2.60
2019-03-11T08:28:39.801Z,2.75
2019-03-11T08:31:11.280Z,2.15
2019-03-11T08:33:43.527Z,2.50
2019-03-11T08:36:13.957Z,2.40
2019-03-11T08:38:44.563Z,2.70
2019-03-11T08:43:44.229Z,2.42
2019-03-11T08:46:14.779Z,3.00
2019-03-11T08:48:45.312Z,2.65
2019-03-11T08:51:15.861Z,2.90
2019-03-11T08:53:46.455Z,3.17
2019-03-11T08:56:16.937Z,2.80
2019-03-11T08:58:47.532Z,3.20
2019-03-11T09:01:18.641Z,3.33
2019-03-11T09:03:49.228Z,3.60
2019-03-11T09:06:19.686Z,3.80
2019-03-11T09:08:50.366Z,3.60
2019-03-11T09:11:20.857Z,3.92
2019-03-11T09:13:51.364Z,4.03
2019-03-11T09:16:21.908Z,4.00
2019-03-11T09:18:52.516Z,3.98
2019-03-11T09:21:23.065Z,4.30
2019-03-11T09:23:53.631Z,5.00
2019-03-11T09:26:24.163Z,4.47
2019-03-11T09:28:54.810Z,4.80
2019-03-11T09:31:25.427Z,4.33
2019-03-11T09:33:56.034Z,5.00
2019-03-11T09:36:26.626Z,4.70
2019-03-11T09:38:57.302Z,4.60
2019-03-11T09:41:27.846Z,4.80
2019-03-11T09:43:58.420Z,4.70
2019-03-11T09:46:29.016Z,5.60
2019-03-11T09:48:59.602Z,4.97
2019-03-11T09:51:30.238Z,5.10
2019-03-11T09:54:00.851Z,4.90
2019-03-11T09:56:31.452Z,4.55
2019-03-11T09:59:02.432Z,4.90
2019-03-11T10:01:33.553Z,4.40
2019-03-11T10:04:04.090Z,4.30
2019-03-11T10:06:34.605Z,4.80
2019-03-11T10:09:06.272Z,4.08
2019-03-11T10:11:36.857Z,4.50
2019-03-11T10:14:07.385Z,3.67
2019-03-11T10:16:37.966Z,3.80
2019-03-11T10:19:08.493Z,4.75
2019-03-11T10:21:39.007Z,4.08
2019-03-11T10:24:09.588Z,3.77
2019-03-11T10:26:40.129Z,5.00
2019-03-11T10:29:39.156Z,4.62
2019-03-11T10:31:59.567Z,4.85
2019-03-11T10:34:30.089Z,4.45
2019-03-11T10:37:00.684Z,4.30
2019-03-11T10:40:05.526Z,4.20
2019-03-11T10:42:36.047Z,4.20
2019-03-11T10:45:07.196Z,3.87
2019-03-11T10:47:37.872Z,4.33
2019-03-11T10:50:10.159Z,4.00
2019-03-11T10:52:41.560Z,3.40
2019-03-11T10:55:13.936Z,3.25
2019-03-11T10:57:44.524Z,3.70
2019-03-11T11:00:19.239Z,2.83
2019-03-11T11:02:49.950Z,3.22
2019-03-11T11:05:20.687Z,3.15
2019-03-11T11:07:51.237Z,2.97
2019-03-11T11:10:22.282Z,2.90
2019-03-11T11:12:53.007Z,3.02
2019-03-11T11:15:24.258Z,2.80
2019-03-11T11:17:55.446Z,2.90
2019-03-11T11:20:26.506Z,3.00
2019-03-11T11:22:57.748Z,3.22
2019-03-11T11:25:28.360Z,2.92
2019-03-11T11:27:59.019Z,2.52
2019-03-11T11:30:29.608Z,2.92
2019-03-11T11:33:00.263Z,2.50
2019-03-11T11:35:30.784Z,2.80
2019-03-11T11:38:01.367Z,3.05
2019-03-11T11:40:31.964Z,2.50
2019-03-11T11:43:02.624Z,2.10
2019-03-11T11:45:33.470Z,2.58
2019-03-11T11:48:03.979Z,2.27
2019-03-11T11:50:34.521Z,2.60
2019-03-11T11:53:05.019Z,2.23
2019-03-11T11:55:35.599Z,1.67
2019-03-11T11:58:06.093Z,2.10
2019-03-11T12:00:38.056Z,1.65
2019-03-11T12:03:08.518Z,2.05
2019-03-11T12:05:39.091Z,1.85
2019-03-11T12:08:09.673Z,2.10
2019-03-11T12:10:40.155Z,2.07
2019-03-11T12:13:10.688Z,2.10
2019-03-11T12:15:41.232Z,2.37
2019-03-11T12:18:11.860Z,2.10
2019-03-11T12:20:42.414Z,1.60
2019-03-11T12:23:13.011Z,1.72
2019-03-11T12:25:43.467Z,1.90
2019-03-11T12:28:13.988Z,1.35
2019-03-11T12:30:44.670Z,1.90
2019-03-11T12:33:15.278Z,1.60
2019-03-11T12:35:45.817Z,1.40
2019-03-11T12:38:16.484Z,1.50
2019-03-11T12:40:47.004Z,1.30
2019-03-11T12:43:17.585Z,1.30
2019-03-11T12:45:48.280Z,1.50
2019-03-11T12:48:18.808Z,1.10
2019-03-11T12:50:49.310Z,1.40
2019-03-11T12:53:19.871Z,1.27
2019-03-11T12:55:50.322Z,1.50
2019-03-11T12:58:20.822Z,1.20
2019-03-11T13:00:56.931Z,1.00
2019-03-11T13:03:44.425Z,1.10
2019-03-11T13:06:15.084Z,1.60
2019-03-11T13:08:48.380Z,3.30
2019-03-11T13:11:18.967Z,3.80
2019-03-11T13:13:49.467Z,3.37
2019-03-11T13:16:19.931Z,2.70
2019-03-11T13:18:53.780Z,2.58
2019-03-11T13:21:33.434Z,1.90
2019-03-11T13:24:04.071Z,1.90
2019-03-11T13:26:34.567Z,2.00
2019-03-11T13:29:05.115Z,2.05
2019-03-11T13:31:35.703Z,1.65
2019-03-11T13:34:06.249Z,1.70
2019-03-11T13:36:36.791Z,1.60
2019-03-11T13:39:09.535Z,1.40
2019-03-11T13:41:40.016Z,0.90
2019-03-11T13:44:10.599Z,1.00
2019-03-11T13:46:41.086Z,0.90
2019-03-11T13:49:11.579Z,1.37
2019-03-11T13:51:42.212Z,1.10
2019-03-11T13:54:12.706Z,1.30
2019-03-11T13:56:56.679Z,1.30
2019-03-11T13:59:35.102Z,1.20
2019-03-11T14:02:01.358Z,1.20
2019-03-11T14:04:31.912Z,0.90
2019-03-11T14:07:02.500Z,1.20
2019-03-11T14:09:32.988Z,1.32
2019-03-11T14:12:03.522Z,1.90
2019-03-11T14:14:34.066Z,4.92
2019-03-11T14:17:04.561Z,6.70
2019-03-11T14:19:35.055Z,6.87
2019-03-11T14:22:05.643Z,7.53
2019-03-11T14:24:36.101Z,7.87
2019-03-11T14:27:06.627Z,7.10
2019-03-11T14:29:37.178Z,6.60
2019-03-11T14:32:08.248Z,6.70
2019-03-11T14:34:38.828Z,6.95
2019-03-11T14:37:09.408Z,6.20
2019-03-11T14:39:39.970Z,5.65
2019-03-11T14:58:28.775Z,4.10
2019-03-11T15:00:50.534Z,4.37
2019-03-11T15:03:21.078Z,4.08
2019-03-11T15:05:53.536Z,3.60
2019-03-11T15:08:23.913Z,2.40
2019-03-11T15:10:56.964Z,2.42
2019-03-11T15:13:27.629Z,2.40
2019-03-11T15:15:58.132Z,2.10
2019-03-11T15:18:28.735Z,2.17
2019-03-11T15:20:59.300Z,1.90
2019-03-11T15:23:29.821Z,2.22
2019-03-11T15:26:00.379Z,2.20
2019-03-11T15:28:30.932Z,2.10
2019-03-11T15:31:10.159Z,2.15
2019-03-11T15:33:33.786Z,1.82
2019-03-11T15:36:04.318Z,1.80
2019-03-11T15:38:34.939Z,2.08
2019-03-11T15:41:05.534Z,2.00
2019-03-11T15:43:36.036Z,2.67
2019-03-11T15:46:06.597Z,2.60
2019-03-11T15:48:37.181Z,2.22
2019-03-11T15:51:07.828Z,2.10
2019-03-11T15:53:38.474Z,2.37
2019-03-11T15:56:09.010Z,2.00
2019-03-11T15:58:39.523Z,1.70
2019-03-11T16:01:10.004Z,2.10
2019-03-11T16:03:40.509Z,1.90
2019-03-11T16:06:10.980Z,1.90
2019-03-11T16:08:41.500Z,1.80
2019-03-11T16:11:11.995Z,1.80
2019-03-11T16:13:42.525Z,1.80
2019-03-11T16:16:12.998Z,2.17
2019-03-11T16:18:43.518Z,2.12
2019-03-11T16:21:14.057Z,2.25
2019-03-11T16:23:44.592Z,2.67
2019-03-11T16:26:15.182Z,2.40
2019-03-11T16:28:48.391Z,2.35
2019-03-11T16:31:17.895Z,2.50
2019-03-11T16:33:48.570Z,3.22
2019-03-11T16:36:19.055Z,3.40
2019-03-11T16:38:49.575Z,3.70
2019-03-11T16:41:20.151Z,3.30
2019-03-11T16:43:50.688Z,3.60
2019-03-11T16:46:21.189Z,3.60
2019-03-11T16:48:51.707Z,3.40
2019-03-11T16:51:22.219Z,4.03
2019-03-11T16:53:52.719Z,4.10
2019-03-11T16:56:23.233Z,3.80
2019-03-11T16:58:53.774Z,3.80
2019-03-11T17:01:24.417Z,4.20
2019-03-11T17:03:54.975Z,3.58
2019-03-11T17:06:25.439Z,4.22
2019-03-11T17:08:55.979Z,4.30
2019-03-11T17:11:26.555Z,3.80
2019-03-11T17:13:57.094Z,3.92
2019-03-11T17:16:27.592Z,3.67
2019-03-11T17:18:58.178Z,3.30
2019-03-11T17:21:28.689Z,3.55
2019-03-11T17:23:59.187Z,3.45
2019-03-11T17:26:29.704Z,3.50
2019-03-11T17:29:00.200Z,3.58
2019-03-11T17:31:30.687Z,3.98
2019-03-11T17:34:01.214Z,4.10
2019-03-11T17:36:31.667Z,4.10
2019-03-11T17:39:04.416Z,4.80
2019-03-11T17:41:34.964Z,5.30
2019-03-11T17:44:05.523Z,4.90
2019-03-11T17:46:36.040Z,5.70
2019-03-11T17:49:06.602Z,5.28
2019-03-11T17:51:37.098Z,5.25
2019-03-11T17:54:07.617Z,5.40
2019-03-11T17:56:38.146Z,5.15
2019-03-11T17:59:08.646Z,4.75
2019-03-11T18:01:39.122Z,5.80
2019-03-11T18:04:09.648Z,5.53
2019-03-11T18:06:40.140Z,5.70
2019-03-11T18:09:10.608Z,5.28
2019-03-11T18:11:41.158Z,4.28
2019-03-11T18:14:11.649Z,5.28
2019-03-11T18:16:42.131Z,4.65
2019-03-11T18:19:12.701Z,5.17
2019-03-11T18:21:43.198Z,5.25
2019-03-11T18:24:13.714Z,5.67
2019-03-11T18:26:44.218Z,5.85
2019-03-11T18:29:14.733Z,5.80
2019-03-11T18:31:45.981Z,5.20
2019-03-11T18:34:16.657Z,4.90
2019-03-11T18:36:47.193Z,5.23
2019-03-11T18:39:19.255Z,5.20
2019-03-11T18:41:50.207Z,4.40
2019-03-11T18:44:20.741Z,4.83
2019-03-11T18:46:51.258Z,4.77
2019-03-11T18:49:21.904Z,4.45
2019-03-11T18:51:52.402Z,4.20
2019-03-11T18:54:23.051Z,4.60
2019-03-11T18:56:53.800Z,3.90
2019-03-11T18:59:24.256Z,3.50
2019-03-11T19:01:54.815Z,3.40
2019-03-11T19:04:25.424Z,3.52
2019-03-11T19:06:55.915Z,4.17
2019-03-11T19:09:26.370Z,3.50
2019-03-11T19:11:56.911Z,3.85
2019-03-11T19:14:27.380Z,3.90
2019-03-11T19:16:57.943Z,4.67
2019-03-11T19:19:28.428Z,3.92
2019-03-11T19:21:58.974Z,4.10
2019-03-11T19:24:29.484Z,3.98
2019-03-11T19:27:00.007Z,4.70
2019-03-11T19:29:30.485Z,4.30
2019-03-11T19:32:01.017Z,4.60
2019-03-11T19:34:31.523Z,3.90
2019-03-11T19:37:01.970Z,4.60
2019-03-11T19:39:32.485Z,4.60
2019-03-11T19:42:03.065Z,4.70
2019-03-11T19:44:33.593Z,4.33
2019-03-11T19:47:04.064Z,3.90
2019-03-11T19:49:34.585Z,3.70
2019-03-11T19:52:05.062Z,3.95
2019-03-11T19:54:35.538Z,4.10
2019-03-11T19:57:06.095Z,4.25
2019-03-11T19:59:36.583Z,3.87
2019-03-11T20:02:07.211Z,4.50
2019-03-11T20:04:37.740Z,5.30
2019-03-11T20:07:08.241Z,5.30
2019-03-11T20:09:38.711Z,5.90
2019-03-11T20:12:09.210Z,5.00
2019-03-11T20:14:39.692Z,5.60
2019-03-11T20:17:10.225Z,5.10
2019-03-11T20:19:40.735Z,4.30
2019-03-11T20:22:11.296Z,4.87
2019-03-11T20:24:41.849Z,5.50
2019-03-11T20:27:12.397Z,4.97
2019-03-11T20:29:42.889Z,5.00
2019-03-11T20:32:13.399Z,4.60
2019-03-11T20:34:44.227Z,5.55
2019-03-11T20:37:14.731Z,4.90
2019-03-11T20:39:45.186Z,4.80
2019-03-11T20:42:15.731Z,4.75
2019-03-11T20:44:46.433Z,4.40
2019-03-11T20:47:16.921Z,4.70
2019-03-11T20:49:47.423Z,4.20
2019-03-11T20:52:18.062Z,4.90
2019-03-11T20:54:48.741Z,5.33
2019-03-11T20:57:19.236Z,4.17
2019-03-11T20:59:49.761Z,3.90
2019-03-11T21:02:20.205Z,4.00
2019-03-11T21:04:50.813Z,3.40
2019-03-11T21:07:21.445Z,3.90
2019-03-11T21:09:52.087Z,3.50
2019-03-11T21:12:23.275Z,4.30
2019-03-11T21:14:53.806Z,3.60
2019-03-11T21:17:26.979Z,3.30
2019-03-11T21:19:56.531Z,3.33
2019-03-11T21:22:27.096Z,3.30
2019-03-11T21:24:59.962Z,4.10
2019-03-11T21:27:29.815Z,3.55
2019-03-11T21:30:00.429Z,3.50
2019-03-11T21:32:32.142Z,2.83
2019-03-11T21:35:02.693Z,3.20
2019-03-11T21:37:33.278Z,2.75
2019-03-11T21:40:03.979Z,3.20
2019-03-11T21:42:37.598Z,3.10
2019-03-11T21:45:07.738Z,2.87
2019-03-11T21:47:38.202Z,2.75
2019-03-11T21:50:11.431Z,3.05
2019-03-11T21:52:41.964Z,2.60
2019-03-11T21:55:12.482Z,2.70
2019-03-11T21:57:43.007Z,3.53
2019-03-11T22:00:17.259Z,3.02
2019-03-11T22:02:47.809Z,2.87
2019-03-11T22:05:18.303Z,2.62
2019-03-11T22:07:48.830Z,3.08
2019-03-11T22:10:19.465Z,2.80
2019-03-11T22:12:50.062Z,3.00
2019-03-11T22:15:20.665Z,3.20
2019-03-11T22:17:51.162Z,3.45
2019-03-11T22:20:21.649Z,3.33
2019-03-11T22:22:52.231Z,3.77
2019-03-11T22:25:22.750Z,3.37
2019-03-11T22:27:53.234Z,2.80
2019-03-11T22:30:23.734Z,3.67
2019-03-11T22:32:54.296Z,3.50
2019-03-11T22:35:24.751Z,3.40
2019-03-11T22:37:55.234Z,4.00
2019-03-11T22:40:25.736Z,4.03
2019-03-11T22:42:56.259Z,4.53
2019-03-11T22:45:26.715Z,4.30
2019-03-11T22:47:57.263Z,3.67
2019-03-11T22:50:27.717Z,3.55
2019-03-11T22:52:58.179Z,3.90
2019-03-11T22:55:28.795Z,3.20
2019-03-11T22:57:59.256Z,3.07
2019-03-11T23:00:56.143Z,2.90
2019-03-11T23:03:27.174Z,2.90
2019-03-11T23:05:58.661Z,2.50
2019-03-11T23:08:29.328Z,2.30
2019-03-11T23:10:59.845Z,2.70
2019-03-11T23:13:30.319Z,2.70
2019-03-11T23:16:00.887Z,2.40
2019-03-11T23:18:31.390Z,2.92
2019-03-11T23:21:01.851Z,2.35
2019-03-11T23:23:32.386Z,2.30
2019-03-11T23:26:02.877Z,3.55
2019-03-11T23:28:33.264Z,2.87
2019-03-11T23:31:03.845Z,2.55
2019-03-11T23:33:34.350Z,3.12
2019-03-11T23:36:07.293Z,3.33
2019-03-11T23:38:36.985Z,3.40
2019-03-11T23:41:07.493Z,3.12
2019-03-11T23:43:37.877Z,3.10
2019-03-11T23:46:08.370Z,3.12
2019-03-11T23:48:38.933Z,3.55
2019-03-11T23:51:09.432Z,3.70
2019-03-11T23:53:39.924Z,3.92
2019-03-11T23:56:10.430Z,3.95
2019-03-11T23:58:40.869Z,3.83
